createdAt,value
2019-05-01T00:01:33.073Z,85.20
2019-05-01T00:04:05.912Z,85.30
2019-05-01T00:06:37.775Z,85.30
2019-05-01T00:09:09.133Z,85.40
2019-05-01T00:11:37.718Z,85.10
2019-05-01T00:14:09.670Z,85.10
2019-05-01T00:16:38.372Z,85.10
2019-05-01T00:19:09.351Z,85.20
2019-05-01T00:21:37.798Z,85.20
2019-05-01T00:24:06.243Z,85.40
2019-05-01T00:26:34.683Z,85.40
2019-05-01T00:29:03.315Z,85.40
2019-05-01T00:31:32.031Z,86.10
2019-05-01T00:34:00.481Z,85.40
2019-05-01T00:36:28.948Z,85.40
2019-05-01T00:38:57.403Z,85.40
2019-05-01T00:41:26.875Z,85.40
2019-05-01T00:43:55.315Z,85.50
2019-05-01T00:46:23.848Z,85.40
2019-05-01T00:48:52.368Z,85.40
2019-05-01T00:51:20.830Z,85.40
2019-05-01T00:53:49.272Z,85.30
2019-05-01T00:56:19.376Z,85.50
2019-05-01T00:58:49.457Z,85.30
2019-05-01T01:01:22.228Z,85.30
2019-05-01T01:03:50.669Z,85.40
2019-05-01T01:06:19.103Z,85.40
2019-05-01T01:08:52.546Z,85.60
2019-05-01T01:11:20.998Z,85.80
2019-05-01T01:13:50.473Z,85.70
2019-05-01T01:16:18.924Z,85.70
2019-05-01T01:18:47.450Z,85.80
2019-05-01T01:21:15.882Z,85.80
2019-05-01T01:23:44.774Z,85.80
2019-05-01T01:26:13.392Z,85.80
2019-05-01T01:28:41.836Z,85.80
2019-05-01T01:31:12.651Z,86.00
2019-05-01T01:33:41.104Z,85.90
2019-05-01T01:36:09.541Z,85.80
2019-05-01T01:38:37.979Z,85.90
2019-05-01T01:41:06.591Z,86.00
2019-05-01T01:43:45.928Z,86.00
2019-05-01T01:46:16.155Z,85.80
2019-05-01T01:48:44.748Z,85.40
2019-05-01T01:51:13.283Z,85.50
2019-05-01T01:53:41.866Z,85.40
2019-05-01T01:56:10.366Z,86.10
2019-05-01T01:58:38.812Z,85.50
2019-05-01T02:01:20.987Z,85.40
2019-05-01T02:03:53.818Z,85.60
2019-05-01T02:06:24.259Z,85.40
2019-05-01T02:08:56.991Z,85.50
2019-05-01T02:11:27.574Z,85.30
2019-05-01T02:14:01.250Z,85.00
2019-05-01T02:16:29.724Z,85.00
2019-05-01T02:18:58.147Z,84.90
2019-05-01T02:21:26.604Z,85.00
2019-05-01T02:23:56.607Z,85.10
2019-05-01T02:26:27.522Z,85.20
2019-05-01T02:29:15.217Z,85.20
2019-05-01T02:31:48.445Z,85.20
2019-05-01T02:34:28.938Z,85.20
2019-05-01T02:36:59.731Z,85.40
2019-05-01T02:39:30.562Z,85.10
2019-05-01T02:42:01.410Z,85.30
2019-05-01T02:44:41.974Z,85.50
2019-05-01T02:47:12.804Z,85.30
2019-05-01T02:49:44.332Z,85.40
2019-05-01T02:52:14.113Z,85.10
2019-05-01T02:54:45.875Z,85.10
2019-05-01T02:57:17.838Z,85.10
2019-05-01T02:59:49.709Z,85.10
2019-05-01T03:02:18.855Z,85.10
2019-05-01T03:04:47.594Z,85.10
2019-05-01T03:07:17.486Z,85.10
2019-05-01T03:09:46.511Z,84.70
2019-05-01T03:12:18.210Z,85.10
2019-05-01T03:14:49.637Z,85.10
2019-05-01T03:17:26.672Z,84.90
2019-05-01T03:19:56.818Z,85.00
2019-05-01T03:22:32.826Z,84.80
2019-05-01T03:25:01.415Z,85.00
2019-05-01T03:27:30.059Z,85.00
2019-05-01T03:29:58.501Z,85.00
2019-05-01T03:32:27.097Z,85.00
2019-05-01T03:34:56.634Z,85.00
2019-05-01T03:37:25.413Z,84.80
2019-05-01T03:39:53.937Z,85.00
2019-05-01T03:42:22.441Z,85.00
2019-05-01T03:44:50.958Z,85.10
2019-05-01T03:47:19.405Z,85.20
2019-05-01T03:49:47.988Z,85.30
2019-05-01T03:52:16.511Z,85.30
2019-05-01T03:54:45.028Z,85.20
2019-05-01T03:57:13.649Z,85.00
2019-05-01T03:59:42.463Z,85.00
2019-05-01T04:02:32.115Z,85.00
2019-05-01T04:04:48.840Z,84.60
2019-05-01T04:07:17.460Z,84.50
2019-05-01T04:09:46.033Z,84.50
2019-05-01T04:12:14.646Z,84.60
2019-05-01T04:14:43.144Z,85.20
2019-05-01T04:17:15.761Z,84.30
2019-05-01T04:19:44.263Z,84.50
2019-05-01T04:22:13.848Z,84.70
2019-05-01T04:25:02.383Z,84.50
2019-05-01T04:27:32.522Z,84.80
2019-05-01T04:30:14.510Z,84.60
2019-05-01T04:32:52.783Z,84.20
2019-05-01T04:35:25.557Z,84.20
2019-05-01T04:37:54.842Z,84.30
2019-05-01T04:40:23.422Z,84.20
2019-05-01T04:42:52.091Z,84.20
2019-05-01T04:45:21.764Z,84.40
2019-05-01T04:47:50.550Z,84.60
2019-05-01T04:50:19.387Z,84.60
2019-05-01T04:52:47.916Z,84.70
2019-05-01T04:55:16.715Z,84.70
2019-05-01T04:57:46.061Z,84.50
2019-05-01T05:00:15.771Z,84.40
2019-05-01T05:03:04.434Z,84.40
2019-05-01T05:05:27.787Z,84.80
2019-05-01T05:07:56.301Z,84.60
2019-05-01T05:10:25.080Z,84.70
2019-05-01T05:12:55.152Z,84.60
2019-05-01T05:15:31.330Z,84.80
2019-05-01T05:17:59.758Z,84.80
2019-05-01T05:20:28.581Z,85.10
2019-05-01T05:22:57.087Z,85.00
2019-05-01T05:25:25.849Z,85.00
2019-05-01T05:27:55.418Z,85.10
2019-05-01T05:30:27.414Z,85.00
2019-05-01T05:32:56.905Z,85.00
2019-05-01T05:35:28.297Z,85.00
2019-05-01T05:38:01.531Z,84.80
2019-05-01T05:40:32.985Z,84.80
2019-05-01T05:43:01.452Z,84.80
2019-05-01T05:45:31.060Z,84.80
2019-05-01T05:47:59.511Z,84.60
2019-05-01T05:50:36.891Z,84.60
2019-05-01T05:53:22.791Z,84.30
2019-05-01T05:55:55.495Z,84.50
2019-05-01T05:58:27.020Z,84.50
2019-05-01T06:01:16.133Z,84.70
2019-05-01T06:04:08.629Z,84.90
2019-05-01T06:06:56.636Z,84.80
2019-05-01T06:09:29.858Z,84.90
2019-05-01T06:12:04.907Z,84.70
2019-05-01T06:14:43.519Z,84.60
2019-05-01T06:17:13.763Z,84.70
2019-05-01T06:19:45.879Z,84.90
2019-05-01T06:22:28.880Z,84.70
2019-05-01T06:25:02.430Z,85.00
2019-05-01T06:27:31.698Z,84.70
2019-05-01T06:30:00.759Z,84.50
2019-05-01T06:32:33.538Z,84.80
2019-05-01T06:35:03.175Z,84.90
2019-05-01T06:38:00.598Z,84.80
2019-05-01T06:40:44.343Z,84.60
2019-05-01T06:43:20.121Z,84.70
2019-05-01T06:45:52.697Z,85.00
2019-05-01T06:48:23.016Z,85.10
2019-05-01T06:50:53.246Z,85.10
2019-05-01T06:53:22.549Z,85.10
2019-05-01T06:55:52.135Z,84.70
2019-05-01T06:58:22.023Z,84.90
2019-05-01T07:00:52.222Z,84.80
2019-05-01T07:03:21.320Z,84.60
2019-05-01T07:05:54.561Z,85.00
2019-05-01T07:08:24.690Z,84.70
2019-05-01T07:10:53.598Z,84.80
2019-05-01T07:13:22.114Z,84.50
2019-05-01T07:15:50.555Z,84.20
2019-05-01T07:18:24.206Z,84.40
2019-05-01T07:20:53.442Z,84.50
2019-05-01T07:23:22.405Z,84.50
2019-05-01T07:25:50.830Z,84.40
2019-05-01T07:28:19.528Z,84.20
2019-05-01T07:30:54.943Z,84.20
2019-05-01T07:33:20.462Z,83.80
2019-05-01T07:35:50.057Z,83.60
2019-05-01T07:38:18.618Z,83.50
2019-05-01T07:40:48.516Z,83.40
2019-05-01T07:43:25.816Z,83.20
2019-05-01T07:45:56.184Z,82.90
2019-05-01T07:48:41.731Z,82.90
2019-05-01T07:51:08.837Z,83.00
2019-05-01T07:53:38.606Z,83.00
2019-05-01T07:56:09.547Z,82.80
2019-05-01T07:58:39.161Z,82.40
2019-05-01T08:01:13.003Z,82.30
2019-05-01T08:03:42.756Z,82.40
2019-05-01T08:06:16.258Z,82.30
2019-05-01T08:08:44.359Z,81.70
2019-05-01T08:11:15.136Z,81.80
2019-05-01T08:13:43.573Z,81.20
2019-05-01T08:16:12.009Z,81.20
2019-05-01T08:18:45.497Z,81.10
2019-05-01T08:21:25.928Z,80.80
2019-05-01T08:23:52.487Z,80.20
2019-05-01T08:26:20.928Z,80.10
2019-05-01T08:28:53.739Z,79.80
2019-05-01T08:31:39.927Z,79.40
2019-05-01T08:34:15.714Z,79.80
2019-05-01T08:36:47.197Z,79.50
2019-05-01T08:39:15.619Z,79.50
2019-05-01T08:41:44.136Z,79.20
2019-05-01T08:44:12.566Z,78.80
2019-05-01T08:46:54.338Z,79.10
2019-05-01T08:49:24.423Z,79.60
2019-05-01T08:51:52.886Z,79.40
2019-05-01T08:54:22.600Z,79.20
2019-05-01T08:56:53.124Z,78.70
2019-05-01T08:59:23.891Z,78.30
2019-05-01T09:02:08.497Z,78.00
2019-05-01T09:04:29.704Z,78.10
2019-05-01T09:06:54.702Z,78.10
2019-05-01T09:09:26.566Z,77.40
2019-05-01T09:11:54.976Z,77.30
2019-05-01T09:14:23.423Z,77.30
2019-05-01T09:16:53.402Z,77.10
2019-05-01T09:19:21.932Z,77.10
2019-05-01T09:21:50.439Z,76.40
2019-05-01T09:24:23.237Z,76.50
2019-05-01T09:27:07.352Z,76.20
2019-05-01T09:29:37.429Z,76.40
2019-05-01T09:32:10.122Z,76.20
2019-05-01T09:34:36.384Z,76.00
2019-05-01T09:37:04.930Z,75.30
2019-05-01T09:39:34.593Z,75.30
2019-05-01T09:42:03.028Z,75.60
2019-05-01T09:44:31.483Z,74.00
2019-05-01T09:46:59.922Z,74.30
2019-05-01T09:49:28.368Z,75.00
2019-05-01T09:52:14.711Z,74.60
2019-05-01T09:54:46.702Z,74.30
2019-05-01T09:57:15.044Z,73.60
2019-05-01T09:59:43.488Z,73.30
2019-05-01T10:02:12.920Z,73.70
2019-05-01T10:04:41.762Z,73.20
2019-05-01T10:07:10.579Z,73.50
2019-05-01T10:09:39.018Z,73.40
2019-05-01T10:12:11.462Z,73.20
2019-05-01T10:14:37.794Z,73.20
2019-05-01T10:17:06.763Z,72.50
2019-05-01T10:19:35.207Z,71.80
2019-05-01T10:22:03.766Z,72.20
2019-05-01T10:24:37.297Z,70.60
2019-05-01T10:27:04.103Z,71.00
2019-05-01T10:29:39.975Z,71.00
2019-05-01T10:32:25.302Z,71.50
2019-05-01T10:34:56.933Z,71.50
2019-05-01T10:37:28.294Z,71.60
2019-05-01T10:39:55.777Z,71.00
2019-05-01T10:42:24.207Z,70.60
2019-05-01T10:44:52.664Z,69.90
2019-05-01T10:47:21.596Z,70.00
2019-05-01T10:49:50.048Z,69.50
2019-05-01T10:52:18.479Z,68.40
2019-05-01T10:54:46.910Z,68.40
2019-05-01T10:57:15.372Z,68.00
2019-05-01T10:59:43.806Z,68.10
2019-05-01T11:02:13.890Z,67.70
2019-05-01T11:04:43.876Z,67.90
2019-05-01T11:07:12.318Z,67.50
2019-05-01T11:09:40.775Z,66.80
2019-05-01T11:12:09.292Z,67.20
2019-05-01T11:14:37.816Z,67.00
2019-05-01T11:17:06.509Z,67.00
2019-05-01T11:19:34.956Z,67.60
2019-05-01T11:22:03.394Z,67.40
2019-05-01T11:24:31.915Z,67.10
2019-05-01T11:27:00.408Z,66.40
2019-05-01T11:29:28.956Z,66.20
2019-05-01T11:32:11.041Z,65.70
2019-05-01T11:34:42.192Z,65.90
2019-05-01T11:37:15.065Z,65.70
2019-05-01T11:39:47.966Z,65.00
2019-05-01T11:42:17.708Z,65.60
2019-05-01T11:44:46.157Z,65.90
2019-05-01T11:47:14.612Z,66.20
2019-05-01T11:49:43.052Z,65.90
2019-05-01T11:52:11.498Z,66.70
2019-05-01T11:54:40.034Z,66.40
2019-05-01T11:57:08.467Z,66.10
2019-05-01T11:59:36.929Z,66.10
2019-05-01T12:02:05.507Z,65.70
2019-05-01T12:04:33.955Z,66.20
2019-05-01T12:07:02.405Z,65.80
2019-05-01T12:09:30.845Z,65.70
2019-05-01T12:12:00.967Z,66.20
2019-05-01T12:14:29.465Z,66.50
2019-05-01T12:17:01.225Z,66.80
2019-05-01T12:19:31.467Z,67.50
2019-05-01T12:21:59.926Z,67.90
2019-05-01T12:24:28.367Z,67.00
2019-05-01T12:26:56.819Z,67.80
2019-05-01T12:29:25.271Z,68.60
2019-05-01T12:31:55.812Z,68.20
2019-05-01T12:34:24.274Z,69.10
2019-05-01T12:36:55.891Z,68.30
2019-05-01T12:39:24.346Z,68.80
2019-05-01T12:41:55.776Z,69.10
2019-05-01T12:44:25.220Z,68.40
2019-05-01T12:47:07.144Z,69.60
2019-05-01T12:49:35.583Z,69.80
2019-05-01T12:52:10.734Z,70.00
2019-05-01T12:54:52.660Z,70.30
2019-05-01T12:57:21.198Z,69.60
2019-05-01T12:59:51.112Z,69.70
2019-05-01T13:02:19.646Z,70.00
2019-05-01T13:04:50.705Z,69.20
2019-05-01T13:07:19.397Z,69.40
2019-05-01T13:09:47.848Z,68.90
2019-05-01T13:12:17.023Z,69.30
2019-05-01T13:14:45.464Z,69.10
2019-05-01T13:17:15.420Z,70.00
2019-05-01T13:19:43.863Z,69.70
2019-05-01T13:22:12.367Z,69.30
2019-05-01T13:24:52.723Z,68.40
2019-05-01T13:27:22.831Z,68.50
2019-05-01T13:30:01.933Z,69.20
2019-05-01T13:32:49.954Z,67.70
2019-05-01T13:35:18.408Z,68.50
2019-05-01T13:37:50.459Z,68.50
2019-05-01T13:40:19.177Z,68.70
2019-05-01T13:42:47.627Z,68.60
2019-05-01T13:45:16.316Z,68.80
2019-05-01T13:47:44.770Z,68.60
2019-05-01T13:50:13.358Z,69.00
2019-05-01T13:52:41.804Z,68.70
2019-05-01T13:55:10.496Z,68.60
2019-05-01T13:57:39.808Z,69.50
2019-05-01T14:00:09.388Z,69.70
2019-05-01T14:02:37.836Z,69.60
2019-05-01T14:05:06.438Z,68.80
2019-05-01T14:07:35.854Z,69.20
2019-05-01T14:10:05.476Z,68.80
2019-05-01T14:12:52.034Z,68.40
2019-05-01T14:15:20.472Z,67.90
2019-05-01T14:17:48.924Z,67.90
2019-05-01T14:20:32.432Z,68.50
2019-05-01T14:23:02.551Z,68.70
2019-05-01T14:25:32.647Z,68.30
2019-05-01T14:28:01.079Z,67.90
2019-05-01T14:30:29.530Z,68.10
2019-05-01T14:33:01.185Z,68.00
2019-05-01T14:35:29.644Z,68.50
2019-05-01T14:37:58.097Z,69.40
2019-05-01T14:40:26.790Z,68.70
2019-05-01T14:42:55.230Z,68.90
2019-05-01T14:45:23.674Z,68.50
2019-05-01T14:47:52.129Z,67.90
2019-05-01T14:50:21.544Z,68.00
2019-05-01T14:52:49.980Z,68.10
2019-05-01T14:55:18.460Z,68.50
2019-05-01T14:57:47.923Z,67.90
2019-05-01T15:00:17.474Z,67.00
2019-05-01T15:02:45.915Z,67.10
2019-05-01T15:05:14.511Z,67.80
2019-05-01T15:07:44.093Z,67.40
2019-05-01T15:10:12.770Z,67.80
2019-05-01T15:12:42.792Z,67.60
2019-05-01T15:15:13.035Z,67.10
2019-05-01T15:17:51.916Z,66.90
2019-05-01T15:20:20.390Z,67.00
2019-05-01T15:22:48.828Z,67.40
2019-05-01T15:25:17.274Z,67.30
2019-05-01T15:27:45.867Z,67.20
2019-05-01T15:30:20.333Z,66.90
2019-05-01T15:32:48.786Z,67.10
2019-05-01T15:35:17.224Z,66.40
2019-05-01T15:37:55.951Z,66.50
2019-05-01T15:40:17.555Z,66.60
2019-05-01T15:42:50.512Z,66.60
2019-05-01T15:45:19.030Z,66.50
2019-05-01T15:47:47.467Z,66.70
2019-05-01T15:50:15.920Z,66.70
2019-05-01T15:52:44.390Z,67.10
2019-05-01T15:55:12.917Z,66.60
2019-05-01T15:57:41.380Z,66.40
2019-05-01T16:00:13.100Z,66.40
2019-05-01T16:02:41.792Z,66.80
2019-05-01T16:05:10.376Z,66.80
2019-05-01T16:07:39.424Z,67.00
2019-05-01T16:10:11.102Z,66.40
2019-05-01T16:12:44.026Z,66.60
2019-05-01T16:15:14.694Z,66.60
2019-05-01T16:17:44.841Z,67.00
2019-05-01T16:20:13.424Z,67.00
2019-05-01T16:22:44.836Z,67.20
2019-05-01T16:25:13.471Z,67.20
2019-05-01T16:27:41.920Z,67.40
2019-05-01T16:30:11.500Z,67.30
2019-05-01T16:32:39.934Z,67.50
2019-05-01T16:35:10.105Z,67.90
2019-05-01T16:37:38.554Z,67.70
2019-05-01T16:40:09.094Z,67.30
2019-05-01T16:42:39.785Z,67.60
2019-05-01T16:45:09.226Z,67.80
2019-05-01T16:47:37.674Z,67.70
2019-05-01T16:50:09.532Z,67.50
2019-05-01T16:52:39.670Z,67.70
2019-05-01T16:55:08.847Z,67.50
2019-05-01T16:57:37.371Z,67.20
2019-05-01T17:00:11.341Z,67.00
2019-05-01T17:02:50.420Z,67.10
2019-05-01T17:05:37.412Z,67.70
2019-05-01T17:08:17.536Z,67.60
2019-05-01T17:10:52.947Z,67.50
2019-05-01T17:13:21.478Z,68.20
2019-05-01T17:15:51.465Z,68.10
2019-05-01T17:18:19.962Z,67.90
2019-05-01T17:20:48.412Z,68.60
2019-05-01T17:23:16.847Z,68.70
2019-05-01T17:25:45.278Z,68.80
2019-05-01T17:28:13.726Z,68.90
2019-05-01T17:30:44.203Z,68.70
2019-05-01T17:33:19.472Z,68.70
2019-05-01T17:35:43.230Z,69.40
2019-05-01T17:38:11.814Z,69.30
2019-05-01T17:40:40.287Z,69.70
2019-05-01T17:43:13.571Z,69.90
2019-05-01T17:45:38.906Z,70.10
2019-05-01T17:48:09.221Z,70.30
2019-05-01T17:50:42.024Z,70.30
2019-05-01T17:53:10.483Z,70.30
2019-05-01T17:55:38.924Z,70.00
2019-05-01T17:58:07.469Z,70.20
2019-05-01T18:00:37.630Z,70.40
2019-05-01T18:03:09.276Z,70.50
2019-05-01T18:05:56.260Z,70.40
2019-05-01T18:08:25.702Z,70.40
2019-05-01T18:10:54.178Z,70.70
2019-05-01T18:13:22.611Z,70.80
2019-05-01T18:15:55.469Z,70.60
2019-05-01T18:18:23.981Z,71.10
2019-05-01T18:20:57.984Z,71.40
2019-05-01T18:23:47.616Z,71.20
2019-05-01T18:26:17.539Z,71.30
2019-05-01T18:28:50.136Z,71.60
2019-05-01T18:31:20.484Z,72.00
2019-05-01T18:33:49.067Z,71.90
2019-05-01T18:36:19.953Z,72.10
2019-05-01T18:38:56.566Z,72.50
2019-05-01T18:41:26.785Z,72.40
2019-05-01T18:43:55.315Z,72.50
2019-05-01T18:46:23.761Z,72.70
2019-05-01T18:48:52.286Z,72.40
2019-05-01T18:51:20.748Z,72.50
2019-05-01T18:53:50.174Z,72.60
2019-05-01T18:56:18.618Z,72.80
2019-05-01T18:58:47.084Z,72.90
2019-05-01T19:01:15.616Z,73.10
2019-05-01T19:03:48.747Z,73.10
2019-05-01T19:06:17.203Z,73.30
2019-05-01T19:08:45.728Z,73.40
2019-05-01T19:11:16.852Z,73.90
2019-05-01T19:13:45.351Z,73.50
2019-05-01T19:16:13.929Z,73.80
2019-05-01T19:18:42.375Z,73.70
2019-05-01T19:21:11.322Z,73.50
2019-05-01T19:23:39.803Z,73.70
2019-05-01T19:26:08.529Z,73.30
2019-05-01T19:28:37.175Z,73.50
2019-05-01T19:31:06.054Z,73.60
2019-05-01T19:33:34.635Z,73.80
2019-05-01T19:36:08.267Z,74.10
2019-05-01T19:38:34.869Z,74.30
2019-05-01T19:41:08.256Z,74.90
2019-05-01T19:43:35.822Z,74.90
2019-05-01T19:46:04.370Z,75.10
2019-05-01T19:48:34.393Z,75.40
2019-05-01T19:51:02.836Z,75.50
2019-05-01T19:53:31.356Z,75.70
2019-05-01T19:55:59.817Z,75.70
2019-05-01T19:58:28.259Z,75.80
2019-05-01T20:00:58.762Z,75.80
2019-05-01T20:03:30.814Z,76.30
2019-05-01T20:05:59.659Z,76.40
2019-05-01T20:08:28.527Z,76.40
2019-05-01T20:10:56.984Z,76.50
2019-05-01T20:13:25.427Z,76.60
2019-05-01T20:15:53.883Z,76.70
2019-05-01T20:18:22.319Z,76.90
2019-05-01T20:20:50.831Z,77.00
2019-05-01T20:23:19.287Z,77.10
2019-05-01T20:25:51.106Z,77.20
2019-05-01T20:28:19.967Z,77.50
2019-05-01T20:30:49.700Z,77.60
2019-05-01T20:33:18.425Z,77.60
2019-05-01T20:35:46.876Z,77.80
2019-05-01T20:38:17.862Z,77.80
2019-05-01T20:40:46.290Z,78.00
2019-05-01T20:43:14.739Z,78.20
2019-05-01T20:45:44.953Z,78.10
2019-05-01T20:48:30.144Z,78.40
2019-05-01T20:50:59.656Z,78.60
2019-05-01T20:53:28.112Z,78.50
2019-05-01T20:55:58.197Z,78.60
2019-05-01T20:58:28.181Z,78.80
2019-05-01T21:00:58.284Z,78.90
2019-05-01T21:03:27.532Z,79.00
2019-05-01T21:05:57.629Z,79.00
2019-05-01T21:08:34.318Z,79.20
2019-05-01T21:11:12.986Z,79.40
2019-05-01T21:13:41.384Z,79.60
2019-05-01T21:16:12.151Z,79.80
2019-05-01T21:18:40.615Z,79.90
2019-05-01T21:21:09.057Z,80.10
2019-05-01T21:23:37.543Z,80.30
2019-05-01T21:26:06.060Z,80.50
2019-05-01T21:28:34.499Z,80.50
2019-05-01T21:31:03.823Z,80.60
2019-05-01T21:33:33.869Z,80.70
2019-05-01T21:36:04.922Z,80.90
2019-05-01T21:38:34.541Z,81.10
2019-05-01T21:41:02.996Z,81.10
2019-05-01T21:43:33.249Z,81.10
2019-05-01T21:46:16.514Z,81.20
2019-05-01T21:48:59.260Z,81.60
2019-05-01T21:51:27.699Z,81.60
2019-05-01T21:53:56.164Z,81.70
2019-05-01T21:56:24.619Z,81.80
2019-05-01T21:58:54.986Z,81.70
2019-05-01T22:01:23.323Z,81.80
2019-05-01T22:03:57.097Z,81.90
2019-05-01T22:06:23.479Z,82.10
2019-05-01T22:09:10.631Z,82.10
2019-05-01T22:11:39.002Z,82.20
2019-05-01T22:14:09.220Z,82.30
2019-05-01T22:16:37.673Z,82.40
2019-05-01T22:19:16.614Z,82.40
2019-05-01T22:21:53.530Z,82.60
2019-05-01T22:24:26.639Z,82.60
2019-05-01T22:26:59.546Z,82.60
2019-05-01T22:29:34.156Z,82.70
2019-05-01T22:32:10.259Z,82.90
2019-05-01T22:34:49.175Z,83.10
2019-05-01T22:37:19.277Z,83.10
2019-05-01T22:39:49.357Z,83.00
2019-05-01T22:42:18.238Z,83.00
2019-05-01T22:44:46.734Z,83.00
2019-05-01T22:47:16.710Z,83.20
2019-05-01T22:49:45.171Z,83.20
2019-05-01T22:52:13.627Z,83.30
2019-05-01T22:54:44.952Z,83.30
2019-05-01T22:57:12.359Z,83.50
2019-05-01T22:59:40.812Z,83.60
2019-05-01T23:02:17.076Z,83.40
2019-05-01T23:04:48.282Z,83.40
2019-05-01T23:07:16.850Z,83.50
2019-05-01T23:09:46.038Z,83.60
2019-05-01T23:12:14.560Z,83.70
2019-05-01T23:14:43.020Z,83.80
2019-05-01T23:17:15.676Z,83.80
2019-05-01T23:19:44.127Z,83.90
2019-05-01T23:22:14.604Z,83.90
2019-05-01T23:24:43.078Z,84.00
2019-05-01T23:27:11.520Z,84.10
2019-05-01T23:29:39.977Z,84.10
2019-05-01T23:32:08.783Z,84.20
2019-05-01T23:34:37.224Z,84.30
2019-05-01T23:37:08.550Z,84.60
2019-05-01T23:39:42.230Z,84.50
2019-05-01T23:42:12.351Z,84.50
2019-05-01T23:44:42.985Z,84.50
2019-05-01T23:47:11.338Z,84.50
2019-05-01T23:49:47.794Z,84.50
2019-05-01T23:52:14.886Z,84.60
2019-05-01T23:54:43.323Z,84.60
2019-05-01T23:57:14.978Z,84.70
2019-05-01T23:59:41.940Z,84.80
